createdAt,value
2017-10-29T00:00:10.034Z,21.47
2017-10-29T00:00:41.876Z,21.46
2017-10-29T00:01:13.629Z,21.46
2017-10-29T00:01:45.290Z,21.45
2017-10-29T00:02:16.933Z,21.46
2017-10-29T00:02:48.630Z,21.46
2017-10-29T00:03:20.498Z,21.46
2017-10-29T00:03:52.391Z,21.46
2017-10-29T00:04:24.047Z,21.45
2017-10-29T00:04:55.733Z,21.44
2017-10-29T00:05:27.381Z,21.44
2017-10-29T00:05:59.031Z,21.44
2017-10-29T00:06:30.679Z,21.44
2017-10-29T00:07:02.557Z,21.44
2017-10-29T00:07:34.205Z,21.43
2017-10-29T00:08:06.079Z,21.42
2017-10-29T00:08:37.839Z,21.43
2017-10-29T00:09:09.676Z,21.43
2017-10-29T00:09:41.430Z,21.43
2017-10-29T00:10:13.380Z,21.42
2017-10-29T00:10:45.030Z,21.42
2017-10-29T00:11:16.717Z,21.43
2017-10-29T00:11:48.366Z,21.43
2017-10-29T00:12:20.241Z,21.44
2017-10-29T00:12:52.205Z,21.43
2017-10-29T00:13:23.855Z,21.44
2017-10-29T00:13:55.510Z,21.42
2017-10-29T00:14:27.157Z,21.42
2017-10-29T00:14:58.801Z,21.40
2017-10-29T00:15:30.449Z,21.40
2017-10-29T00:16:02.331Z,21.41
2017-10-29T00:16:34.005Z,21.39
2017-10-29T00:17:05.653Z,21.39
2017-10-29T00:17:37.297Z,21.40
2017-10-29T00:18:09.125Z,21.38
2017-10-29T00:18:40.879Z,21.40
2017-10-29T00:19:12.530Z,21.39
2017-10-29T00:19:44.174Z,21.38
2017-10-29T00:20:15.818Z,21.39
2017-10-29T00:20:47.483Z,21.38
2017-10-29T00:21:19.197Z,21.39
2017-10-29T00:21:50.841Z,21.39
2017-10-29T00:22:22.489Z,21.39
2017-10-29T00:22:54.138Z,21.39
2017-10-29T00:23:25.785Z,21.38
2017-10-29T00:23:57.429Z,21.38
2017-10-29T00:24:29.074Z,21.38
2017-10-29T00:25:00.713Z,21.35
2017-10-29T00:25:32.353Z,21.37
2017-10-29T00:26:03.997Z,21.37
2017-10-29T00:26:35.815Z,21.37
2017-10-29T00:27:07.764Z,21.37
2017-10-29T00:27:39.418Z,21.36
2017-10-29T00:28:11.061Z,21.36
2017-10-29T00:28:42.701Z,21.36
2017-10-29T00:29:14.346Z,21.38
2017-10-29T00:29:45.989Z,21.38
2017-10-29T00:30:17.634Z,21.38
2017-10-29T00:30:49.455Z,21.38
2017-10-29T00:31:21.206Z,21.37
2017-10-29T00:31:52.898Z,21.36
2017-10-29T00:32:24.546Z,21.37
2017-10-29T00:32:56.189Z,21.36
2017-10-29T00:33:27.833Z,21.36
2017-10-29T00:33:59.723Z,21.37
2017-10-29T00:34:31.373Z,21.37
2017-10-29T00:35:03.018Z,21.38
2017-10-29T00:35:34.665Z,21.38
2017-10-29T00:36:06.305Z,21.37
2017-10-29T00:36:37.950Z,21.38
2017-10-29T00:37:09.633Z,21.38
2017-10-29T00:37:41.277Z,21.40
2017-10-29T00:38:12.922Z,21.40
2017-10-29T00:38:44.574Z,21.40
2017-10-29T00:39:16.450Z,21.40
2017-10-29T00:39:48.286Z,21.42
2017-10-29T00:40:20.041Z,21.43
2017-10-29T00:40:51.689Z,21.44
2017-10-29T00:41:23.333Z,21.45
2017-10-29T00:41:55.162Z,21.45
2017-10-29T00:42:26.915Z,21.46
2017-10-29T00:42:58.865Z,21.46
2017-10-29T00:43:30.513Z,21.47
2017-10-29T00:44:02.157Z,21.48
2017-10-29T00:44:33.809Z,21.48
2017-10-29T00:45:05.449Z,21.48
2017-10-29T00:45:37.093Z,21.50
2017-10-29T00:46:09.023Z,21.52
2017-10-29T00:46:40.971Z,21.54
2017-10-29T00:47:12.739Z,21.54
2017-10-29T00:47:44.562Z,21.56
2017-10-29T00:48:16.511Z,21.57
2017-10-29T00:48:48.460Z,21.56
2017-10-29T00:49:20.111Z,21.57
2017-10-29T00:49:51.764Z,21.58
2017-10-29T00:50:23.414Z,21.57
2017-10-29T00:50:55.065Z,21.58
2017-10-29T00:51:26.713Z,21.58
2017-10-29T00:51:58.365Z,21.59
2017-10-29T00:52:30.013Z,21.60
2017-10-29T00:53:01.714Z,21.61
2017-10-29T00:53:33.357Z,21.60
2017-10-29T00:54:05.001Z,21.58
2017-10-29T00:54:36.649Z,21.58
2017-10-29T00:55:08.297Z,21.57
2017-10-29T00:55:39.945Z,21.57
2017-10-29T00:56:11.754Z,21.55
2017-10-29T00:56:43.704Z,21.53
2017-10-29T00:57:15.354Z,21.54
2017-10-29T00:57:46.997Z,21.54
2017-10-29T00:58:18.685Z,21.52
2017-10-29T00:58:50.578Z,21.51
2017-10-29T00:59:22.230Z,21.55
2017-10-29T00:59:53.881Z,21.54
2017-10-29T01:00:25.526Z,21.54
2017-10-29T01:00:57.169Z,21.53
2017-10-29T01:01:28.814Z,21.52
2017-10-29T01:02:00.493Z,21.52
2017-10-29T01:02:32.182Z,21.49
2017-10-29T01:03:03.824Z,21.49
2017-10-29T01:03:35.481Z,21.49
2017-10-29T01:04:07.161Z,21.49
2017-10-29T01:04:38.947Z,21.47
2017-10-29T01:05:10.896Z,21.48
2017-10-29T01:05:42.545Z,21.46
2017-10-29T01:06:14.190Z,21.45
2017-10-29T01:06:45.878Z,21.44
2017-10-29T01:07:17.522Z,21.44
2017-10-29T01:07:49.168Z,21.44
2017-10-29T01:08:20.818Z,21.43
2017-10-29T01:08:52.461Z,21.42
2017-10-29T01:09:24.297Z,21.41
2017-10-29T01:09:55.981Z,21.40
2017-10-29T01:10:27.678Z,21.40
2017-10-29T01:10:59.330Z,21.39
2017-10-29T01:11:31.168Z,21.38
2017-10-29T01:12:02.819Z,21.38
2017-10-29T01:12:34.493Z,21.38
2017-10-29T01:13:06.388Z,21.38
2017-10-29T01:13:38.087Z,21.37
2017-10-29T01:14:10.037Z,21.37
2017-10-29T01:14:41.689Z,21.37
2017-10-29T01:15:13.333Z,21.36
2017-10-29T01:15:45.157Z,21.37
2017-10-29T01:16:16.914Z,21.36
2017-10-29T01:16:48.733Z,21.36
2017-10-29T01:17:20.502Z,21.35
2017-10-29T01:17:52.452Z,21.33
2017-10-29T01:18:24.141Z,21.34
2017-10-29T01:18:55.789Z,21.34
2017-10-29T01:19:27.438Z,21.34
2017-10-29T01:19:59.085Z,21.33
2017-10-29T01:20:30.972Z,21.32
2017-10-29T01:21:02.617Z,21.33
2017-10-29T01:21:34.263Z,21.33
2017-10-29T01:22:05.922Z,21.33
2017-10-29T01:22:37.561Z,21.33
2017-10-29T01:23:09.220Z,21.32
2017-10-29T01:23:41.019Z,21.32
2017-10-29T01:24:13.057Z,21.31
2017-10-29T01:24:44.745Z,21.32
2017-10-29T01:25:16.629Z,21.32
2017-10-29T01:25:48.309Z,21.33
2017-10-29T01:26:20.266Z,21.35
2017-10-29T01:26:51.922Z,21.36
2017-10-29T01:27:23.569Z,21.36
2017-10-29T01:27:55.218Z,21.35
2017-10-29T01:28:27.132Z,21.34
2017-10-29T01:28:58.968Z,21.35
2017-10-29T01:29:30.674Z,21.35
2017-10-29T01:30:02.322Z,21.36
2017-10-29T01:30:33.970Z,21.35
2017-10-29T01:31:05.623Z,21.34
2017-10-29T01:31:37.313Z,21.34
2017-10-29T01:32:08.974Z,21.33
2017-10-29T01:32:40.622Z,21.31
2017-10-29T01:33:12.284Z,21.32
2017-10-29T01:33:43.935Z,21.30
2017-10-29T01:34:15.808Z,21.30
2017-10-29T01:34:47.498Z,21.29
2017-10-29T01:35:19.150Z,21.28
2017-10-29T01:35:50.793Z,21.28
2017-10-29T01:36:22.684Z,21.27
2017-10-29T01:36:54.334Z,21.27
2017-10-29T01:37:25.977Z,21.27
2017-10-29T01:37:57.622Z,21.28
2017-10-29T01:38:29.265Z,21.27
2017-10-29T01:39:01.049Z,21.28
2017-10-29T01:39:32.694Z,21.27
2017-10-29T01:40:04.359Z,21.27
2017-10-29T01:40:36.010Z,21.29
2017-10-29T01:41:07.693Z,21.30
2017-10-29T01:41:39.337Z,21.31
2017-10-29T01:42:10.979Z,21.31
2017-10-29T01:42:42.626Z,21.30
2017-10-29T01:43:14.270Z,21.30
2017-10-29T01:43:45.910Z,21.30
2017-10-29T01:44:17.549Z,21.29
2017-10-29T01:44:49.214Z,21.29
2017-10-29T01:45:20.865Z,21.30
2017-10-29T01:45:52.554Z,21.31
2017-10-29T01:46:24.202Z,21.32
2017-10-29T01:46:55.845Z,21.33
2017-10-29T01:47:27.490Z,21.34
2017-10-29T01:47:59.133Z,21.35
2017-10-29T01:48:30.778Z,21.35
2017-10-29T01:49:02.461Z,21.35
2017-10-29T01:49:34.110Z,21.36
2017-10-29T01:50:05.987Z,21.34
2017-10-29T01:50:37.638Z,21.34
2017-10-29T01:51:09.337Z,21.33
2017-10-29T01:51:41.177Z,21.33
2017-10-29T01:52:12.863Z,21.32
2017-10-29T01:52:44.812Z,21.32
2017-10-29T01:53:16.463Z,21.32
2017-10-29T01:53:48.134Z,21.30
2017-10-29T01:54:19.806Z,21.29
2017-10-29T01:54:51.453Z,21.29
2017-10-29T01:55:23.327Z,21.30
2017-10-29T01:55:55.164Z,21.29
2017-10-29T01:56:26.920Z,21.29
2017-10-29T01:56:58.570Z,21.27
2017-10-29T01:57:30.218Z,21.29
2017-10-29T01:58:01.869Z,21.28
2017-10-29T01:58:33.513Z,21.28
2017-10-29T01:59:05.430Z,21.27
2017-10-29T01:59:37.384Z,21.27
2017-10-29T02:00:09.228Z,21.27
2017-10-29T02:00:40.981Z,21.27
2017-10-29T02:01:12.824Z,21.28
2017-10-29T02:01:44.473Z,21.27
2017-10-29T02:02:16.122Z,21.28
2017-10-29T02:02:47.805Z,21.28
2017-10-29T02:03:19.450Z,21.29
2017-10-29T02:03:51.134Z,21.30
2017-10-29T02:04:22.822Z,21.30
2017-10-29T02:04:54.526Z,21.31
2017-10-29T02:05:26.173Z,21.32
2017-10-29T02:05:57.814Z,21.32
2017-10-29T02:06:29.542Z,21.34
2017-10-29T02:07:01.293Z,21.33
2017-10-29T02:07:32.942Z,21.34
2017-10-29T02:08:04.585Z,21.35
2017-10-29T02:08:36.524Z,21.35
2017-10-29T02:09:08.170Z,21.35
2017-10-29T02:09:39.818Z,21.35
2017-10-29T02:10:11.506Z,21.35
2017-10-29T02:10:43.149Z,21.37
2017-10-29T02:11:14.794Z,21.37
2017-10-29T02:11:46.442Z,21.38
2017-10-29T02:12:18.316Z,21.38
2017-10-29T02:12:50.275Z,21.37
2017-10-29T02:13:21.961Z,21.38
2017-10-29T02:13:53.609Z,21.38
2017-10-29T02:14:25.257Z,21.39
2017-10-29T02:14:56.905Z,21.38
2017-10-29T02:15:28.601Z,21.40
2017-10-29T02:16:00.250Z,21.43
2017-10-29T02:16:31.918Z,21.42
2017-10-29T02:17:03.573Z,21.42
2017-10-29T02:17:35.222Z,21.43
2017-10-29T02:18:07.002Z,21.44
2017-10-29T02:18:38.951Z,21.46
2017-10-29T02:19:10.845Z,21.48
2017-10-29T02:19:42.493Z,21.48
2017-10-29T02:20:14.141Z,21.48
2017-10-29T02:20:46.018Z,21.49
2017-10-29T02:21:17.775Z,21.51
2017-10-29T02:21:49.424Z,21.49
2017-10-29T02:22:21.122Z,21.50
2017-10-29T02:22:53.008Z,21.49
2017-10-29T02:23:24.657Z,21.49
2017-10-29T02:23:56.302Z,21.51
2017-10-29T02:24:27.948Z,21.51
2017-10-29T02:24:59.589Z,21.52
2017-10-29T02:25:31.237Z,21.53
2017-10-29T02:26:02.885Z,21.53
2017-10-29T02:26:34.526Z,21.52
2017-10-29T02:27:06.171Z,21.54
2017-10-29T02:27:37.861Z,21.55
2017-10-29T02:28:09.734Z,21.55
2017-10-29T02:28:41.682Z,21.54
2017-10-29T02:29:13.516Z,21.55
2017-10-29T02:29:45.273Z,21.55
2017-10-29T02:30:17.223Z,21.54
2017-10-29T02:30:49.064Z,21.56
2017-10-29T02:31:20.816Z,21.53
2017-10-29T02:31:52.466Z,21.53
2017-10-29T02:32:24.110Z,21.52
2017-10-29T02:32:55.757Z,21.52
2017-10-29T02:33:27.402Z,21.52
2017-10-29T02:33:59.055Z,21.52
2017-10-29T02:34:30.698Z,21.53
2017-10-29T02:35:02.341Z,21.54
2017-10-29T02:35:33.989Z,21.53
2017-10-29T02:36:05.637Z,21.52
2017-10-29T02:36:37.540Z,21.52
2017-10-29T02:37:09.189Z,21.53
2017-10-29T02:37:40.881Z,21.53
2017-10-29T02:38:12.586Z,21.52
2017-10-29T02:38:44.233Z,21.52
2017-10-29T02:39:15.878Z,21.53
2017-10-29T02:39:47.523Z,21.52
2017-10-29T02:40:19.165Z,21.50
2017-10-29T02:40:50.815Z,21.50
2017-10-29T02:41:22.457Z,21.47
2017-10-29T02:41:54.119Z,21.48
2017-10-29T02:42:25.778Z,21.45
2017-10-29T02:42:57.457Z,21.45
2017-10-29T02:43:29.105Z,21.44
2017-10-29T02:44:00.835Z,21.43
2017-10-29T02:44:32.697Z,21.44
2017-10-29T02:45:04.383Z,21.44
2017-10-29T02:45:36.282Z,21.45
2017-10-29T02:46:07.929Z,21.43
2017-10-29T02:46:39.578Z,21.43
2017-10-29T02:47:11.222Z,21.43
2017-10-29T02:47:42.873Z,21.42
2017-10-29T02:48:14.518Z,21.41
2017-10-29T02:48:46.157Z,21.41
2017-10-29T02:49:17.865Z,21.41
2017-10-29T02:49:49.820Z,21.39
2017-10-29T02:50:21.470Z,21.40
2017-10-29T02:50:53.117Z,21.38
2017-10-29T02:51:24.758Z,21.37
2017-10-29T02:51:56.401Z,21.36
2017-10-29T02:52:28.052Z,21.36
2017-10-29T02:52:59.777Z,21.36
2017-10-29T02:53:31.469Z,21.36
2017-10-29T02:54:03.202Z,21.35
2017-10-29T02:54:34.854Z,21.34
2017-10-29T02:55:06.501Z,21.34
2017-10-29T02:55:38.142Z,21.33
2017-10-29T02:56:09.826Z,21.33
2017-10-29T02:56:41.478Z,21.33
2017-10-29T02:57:13.122Z,21.33
2017-10-29T02:57:44.770Z,21.32
2017-10-29T02:58:16.414Z,21.31
2017-10-29T02:58:48.062Z,21.32
2017-10-29T02:59:19.954Z,21.32
2017-10-29T02:59:51.624Z,21.33
2017-10-29T03:00:23.481Z,21.34
2017-10-29T03:00:55.141Z,21.32
2017-10-29T03:01:26.781Z,21.33
2017-10-29T03:01:58.425Z,21.34
2017-10-29T03:02:30.066Z,21.33
2017-10-29T03:03:01.712Z,21.31
2017-10-29T03:03:33.354Z,21.32
2017-10-29T03:04:05.006Z,21.31
2017-10-29T03:04:36.693Z,21.30
2017-10-29T03:05:08.352Z,21.29
2017-10-29T03:05:40.302Z,21.29
2017-10-29T03:06:12.251Z,21.30
2017-10-29T03:06:44.131Z,21.28
2017-10-29T03:07:15.777Z,21.28
2017-10-29T03:07:47.429Z,21.28
2017-10-29T03:08:19.129Z,21.28
2017-10-29T03:08:50.786Z,21.26
2017-10-29T03:09:22.437Z,21.26
2017-10-29T03:09:54.089Z,21.27
2017-10-29T03:10:25.737Z,21.24
2017-10-29T03:10:57.382Z,21.25
2017-10-29T03:11:29.284Z,21.25
2017-10-29T03:12:00.933Z,21.24
2017-10-29T03:12:32.583Z,21.24
2017-10-29T03:13:04.229Z,21.25
2017-10-29T03:13:35.877Z,21.25
2017-10-29T03:14:07.521Z,21.25
2017-10-29T03:14:39.409Z,21.24
2017-10-29T03:15:11.058Z,21.24
2017-10-29T03:15:42.727Z,21.24
2017-10-29T03:16:14.676Z,21.22
2017-10-29T03:16:46.636Z,21.22
2017-10-29T03:17:18.285Z,21.22
2017-10-29T03:17:49.926Z,21.20
2017-10-29T03:18:21.569Z,21.21
2017-10-29T03:18:53.217Z,21.21
2017-10-29T03:19:24.861Z,21.21
2017-10-29T03:19:56.783Z,21.21
2017-10-29T03:20:28.450Z,21.21
2017-10-29T03:21:00.094Z,21.21
2017-10-29T03:21:31.734Z,21.20
2017-10-29T03:22:03.379Z,21.20
2017-10-29T03:22:35.299Z,21.19
2017-10-29T03:23:06.950Z,21.19
2017-10-29T03:23:38.593Z,21.18
2017-10-29T03:24:10.238Z,21.18
2017-10-29T03:24:41.880Z,21.18
2017-10-29T03:25:13.530Z,21.18
2017-10-29T03:25:45.182Z,21.17
2017-10-29T03:26:16.825Z,21.17
2017-10-29T03:26:48.468Z,21.17
2017-10-29T03:27:20.123Z,21.17
2017-10-29T03:27:51.773Z,21.17
2017-10-29T03:28:23.418Z,21.16
2017-10-29T03:28:55.325Z,21.15
2017-10-29T03:29:26.973Z,21.16
2017-10-29T03:29:58.614Z,21.14
2017-10-29T03:30:30.544Z,21.14
2017-10-29T03:31:02.198Z,21.14
2017-10-29T03:31:33.855Z,21.13
2017-10-29T03:32:05.506Z,21.13
2017-10-29T03:32:37.145Z,21.13
2017-10-29T03:33:08.789Z,21.13
2017-10-29T03:33:40.431Z,21.12
2017-10-29T03:34:12.301Z,21.12
2017-10-29T03:34:43.985Z,21.12
2017-10-29T03:35:15.935Z,21.09
2017-10-29T03:35:47.885Z,21.10
2017-10-29T03:36:19.533Z,21.11
2017-10-29T03:36:51.174Z,21.11
2017-10-29T03:37:22.866Z,21.11
2017-10-29T03:37:54.715Z,21.11
2017-10-29T03:38:26.401Z,21.11
2017-10-29T03:38:58.055Z,21.11
2017-10-29T03:39:29.705Z,21.10
2017-10-29T03:40:01.350Z,21.10
2017-10-29T03:40:32.997Z,21.09
2017-10-29T03:41:04.644Z,21.10
2017-10-29T03:41:36.530Z,21.08
2017-10-29T03:42:08.199Z,21.09
2017-10-29T03:42:39.850Z,21.10
2017-10-29T03:43:11.493Z,21.10
2017-10-29T03:43:43.142Z,21.10
2017-10-29T03:44:14.788Z,21.09
2017-10-29T03:44:46.434Z,21.10
2017-10-29T03:45:18.077Z,21.09
2017-10-29T03:45:49.717Z,21.10
2017-10-29T03:46:21.406Z,21.11
2017-10-29T03:46:53.285Z,21.13
2017-10-29T03:47:25.235Z,21.13
2017-10-29T03:47:57.184Z,21.14
2017-10-29T03:48:28.838Z,21.15
2017-10-29T03:49:00.485Z,21.16
2017-10-29T03:49:32.125Z,21.15
2017-10-29T03:50:03.774Z,21.16
2017-10-29T03:50:35.417Z,21.17
2017-10-29T03:51:07.066Z,21.17
2017-10-29T03:51:38.705Z,21.17
2017-10-29T03:52:10.354Z,21.19
2017-10-29T03:52:41.997Z,21.22
2017-10-29T03:53:13.642Z,21.24
2017-10-29T03:53:45.289Z,21.27
2017-10-29T03:54:16.942Z,21.29
2017-10-29T03:54:48.653Z,21.31
2017-10-29T03:55:20.301Z,21.31
2017-10-29T03:55:51.950Z,21.32
2017-10-29T03:56:23.593Z,21.35
2017-10-29T03:56:55.237Z,21.36
2017-10-29T03:57:26.878Z,21.39
2017-10-29T03:57:58.521Z,21.40
2017-10-29T03:58:30.178Z,21.44
2017-10-29T03:59:01.822Z,21.45
2017-10-29T03:59:33.613Z,21.49
2017-10-29T04:00:05.310Z,21.50
2017-10-29T04:00:36.957Z,21.52
2017-10-29T04:01:08.607Z,21.55
2017-10-29T04:01:40.446Z,21.56
2017-10-29T04:02:12.129Z,21.60
2017-10-29T04:02:43.778Z,21.60
2017-10-29T04:03:15.425Z,21.60
2017-10-29T04:03:47.076Z,21.62
2017-10-29T04:04:18.725Z,21.63
2017-10-29T04:04:50.370Z,21.61
2017-10-29T04:05:22.050Z,21.59
2017-10-29T04:05:53.932Z,21.54
2017-10-29T04:06:25.585Z,21.50
2017-10-29T04:06:57.234Z,21.48
2017-10-29T04:07:28.877Z,21.54
2017-10-29T04:08:00.525Z,21.59
2017-10-29T04:08:32.174Z,21.58
2017-10-29T04:09:03.817Z,21.62
2017-10-29T04:09:35.466Z,21.61
2017-10-29T04:10:07.110Z,21.61
2017-10-29T04:10:38.761Z,21.63
2017-10-29T04:11:10.405Z,21.61
2017-10-29T04:11:42.054Z,21.60
2017-10-29T04:12:13.891Z,21.60
2017-10-29T04:12:45.538Z,21.59
2017-10-29T04:13:17.185Z,21.61
2017-10-29T04:13:48.833Z,21.62
2017-10-29T04:14:20.529Z,21.60
2017-10-29T04:14:52.178Z,21.59
2017-10-29T04:15:24.006Z,21.58
2017-10-29T04:15:55.653Z,21.57
2017-10-29T04:16:27.581Z,21.55
2017-10-29T04:16:59.331Z,21.54
2017-10-29T04:17:30.982Z,21.54
2017-10-29T04:18:02.626Z,21.54
2017-10-29T04:18:34.270Z,21.53
2017-10-29T04:19:05.915Z,21.50
2017-10-29T04:19:37.559Z,21.48
2017-10-29T04:20:09.206Z,21.48
2017-10-29T04:20:40.845Z,21.46
2017-10-29T04:21:12.529Z,21.46
2017-10-29T04:21:44.444Z,21.46
2017-10-29T04:22:16.089Z,21.45
2017-10-29T04:22:47.737Z,21.43
2017-10-29T04:23:19.377Z,21.42
2017-10-29T04:23:51.021Z,21.40
2017-10-29T04:24:22.670Z,21.40
2017-10-29T04:24:54.575Z,21.39
2017-10-29T04:25:26.452Z,21.37
2017-10-29T04:25:58.097Z,21.36
2017-10-29T04:26:29.741Z,21.34
2017-10-29T04:27:01.389Z,21.34
2017-10-29T04:27:33.033Z,21.35
2017-10-29T04:28:04.675Z,21.33
2017-10-29T04:28:36.329Z,21.33
2017-10-29T04:29:08.030Z,21.32
2017-10-29T04:29:39.673Z,21.30
2017-10-29T04:30:11.321Z,21.31
2017-10-29T04:30:42.963Z,21.29
2017-10-29T04:31:14.609Z,21.28
2017-10-29T04:31:46.254Z,21.27
2017-10-29T04:32:17.898Z,21.25
2017-10-29T04:32:49.541Z,21.25
2017-10-29T04:33:21.181Z,21.25
2017-10-29T04:33:52.825Z,21.24
2017-10-29T04:34:24.746Z,21.22
2017-10-29T04:34:56.394Z,21.23
2017-10-29T04:35:28.038Z,21.24
2017-10-29T04:35:59.681Z,21.24
2017-10-29T04:36:31.326Z,21.24
2017-10-29T04:37:03.005Z,21.23
2017-10-29T04:37:34.902Z,21.24
2017-10-29T04:38:06.550Z,21.22
2017-10-29T04:38:38.197Z,21.21
2017-10-29T04:39:09.841Z,21.20
2017-10-29T04:39:41.489Z,21.20
2017-10-29T04:40:13.134Z,21.19
2017-10-29T04:40:44.786Z,21.19
2017-10-29T04:41:16.704Z,21.18
2017-10-29T04:41:48.354Z,21.17
2017-10-29T04:42:20.002Z,21.18
2017-10-29T04:42:51.646Z,21.17
2017-10-29T04:43:23.293Z,21.16
2017-10-29T04:43:54.937Z,21.17
2017-10-29T04:44:26.586Z,21.18
2017-10-29T04:44:58.420Z,21.17
2017-10-29T04:45:30.062Z,21.16
2017-10-29T04:46:01.713Z,21.16
2017-10-29T04:46:33.374Z,21.14
2017-10-29T04:47:05.026Z,21.14
2017-10-29T04:47:36.671Z,21.13
2017-10-29T04:48:08.313Z,21.13
2017-10-29T04:48:39.996Z,21.11
2017-10-29T04:49:11.645Z,21.11
2017-10-29T04:49:43.531Z,21.11
2017-10-29T04:50:15.186Z,21.10
2017-10-29T04:50:46.829Z,21.10
2017-10-29T04:51:18.486Z,21.09
2017-10-29T04:51:50.177Z,21.10
2017-10-29T04:52:21.826Z,21.09
2017-10-29T04:52:53.465Z,21.09
2017-10-29T04:53:25.110Z,21.10
2017-10-29T04:53:56.753Z,21.10
2017-10-29T04:54:28.393Z,21.10
2017-10-29T04:55:00.041Z,21.10
2017-10-29T04:55:31.682Z,21.10
2017-10-29T04:56:03.335Z,21.08
2017-10-29T04:56:34.982Z,21.08
2017-10-29T04:57:06.685Z,21.07
2017-10-29T04:57:38.337Z,21.07
2017-10-29T04:58:09.981Z,21.07
2017-10-29T04:58:41.630Z,21.06
2017-10-29T04:59:13.273Z,21.04
2017-10-29T04:59:44.945Z,21.04
2017-10-29T05:00:16.586Z,21.05
2017-10-29T05:00:48.237Z,21.03
2017-10-29T05:01:19.893Z,21.02
2017-10-29T05:01:51.658Z,21.02
2017-10-29T05:02:23.544Z,21.03
2017-10-29T05:02:55.186Z,21.02
2017-10-29T05:03:26.833Z,21.01
2017-10-29T05:03:58.481Z,21.00
2017-10-29T05:04:30.129Z,21.00
2017-10-29T05:05:02.016Z,21.00
2017-10-29T05:05:33.766Z,20.99
2017-10-29T05:06:05.608Z,20.98
2017-10-29T05:06:37.356Z,20.98
2017-10-29T05:07:09.306Z,20.97
2017-10-29T05:07:41.014Z,20.97
2017-10-29T05:08:12.897Z,20.96
2017-10-29T05:08:44.776Z,20.95
2017-10-29T05:09:16.422Z,20.95
2017-10-29T05:09:48.073Z,20.95
2017-10-29T05:10:19.714Z,20.94
2017-10-29T05:10:51.390Z,20.95
2017-10-29T05:11:23.052Z,20.96
2017-10-29T05:11:54.734Z,20.96
2017-10-29T05:12:26.382Z,20.95
2017-10-29T05:12:58.025Z,20.96
2017-10-29T05:13:29.669Z,20.96
2017-10-29T05:14:01.314Z,20.96
2017-10-29T05:14:32.961Z,20.96
2017-10-29T05:15:04.609Z,20.97
2017-10-29T05:15:36.499Z,20.97
2017-10-29T05:16:08.450Z,20.96
2017-10-29T05:16:40.098Z,20.97
2017-10-29T05:17:11.742Z,20.98
2017-10-29T05:17:43.389Z,20.98
2017-10-29T05:18:15.038Z,20.98
2017-10-29T05:18:46.681Z,20.96
2017-10-29T05:19:18.520Z,20.97
2017-10-29T05:19:50.166Z,20.96
2017-10-29T05:20:21.809Z,20.96
2017-10-29T05:20:53.458Z,20.97
2017-10-29T05:21:25.171Z,20.97
2017-10-29T05:21:56.870Z,20.96
2017-10-29T05:22:28.514Z,20.97
2017-10-29T05:23:00.157Z,20.97
2017-10-29T05:23:31.881Z,20.96
2017-10-29T05:24:03.690Z,20.96
2017-10-29T05:24:35.554Z,20.95
2017-10-29T05:25:07.205Z,20.96
2017-10-29T05:25:38.844Z,20.96
2017-10-29T05:26:10.490Z,20.96
2017-10-29T05:26:42.136Z,20.97
2017-10-29T05:27:13.848Z,20.99
2017-10-29T05:27:45.720Z,20.99
2017-10-29T05:28:17.368Z,21.00
2017-10-29T05:28:49.015Z,21.00
2017-10-29T05:29:20.658Z,21.01
2017-10-29T05:29:52.301Z,21.01
2017-10-29T05:30:23.941Z,21.01
2017-10-29T05:30:55.581Z,21.02
2017-10-29T05:31:27.232Z,21.03
2017-10-29T05:31:58.880Z,21.06
2017-10-29T05:32:30.581Z,21.07
2017-10-29T05:33:02.229Z,21.10
2017-10-29T05:33:33.873Z,21.12
2017-10-29T05:34:05.528Z,21.14
2017-10-29T05:34:37.177Z,21.15
2017-10-29T05:35:08.821Z,21.16
2017-10-29T05:35:40.469Z,21.17
2017-10-29T05:36:12.125Z,21.20
2017-10-29T05:36:43.773Z,21.20
2017-10-29T05:37:15.620Z,21.21
2017-10-29T05:37:47.336Z,21.23
2017-10-29T05:38:18.982Z,21.23
2017-10-29T05:38:50.626Z,21.29
2017-10-29T05:39:22.274Z,21.28
2017-10-29T05:39:53.925Z,21.30
2017-10-29T05:40:25.817Z,21.32
2017-10-29T05:40:57.768Z,21.35
2017-10-29T05:41:29.414Z,21.36
2017-10-29T05:42:01.062Z,21.35
2017-10-29T05:42:32.709Z,21.35
2017-10-29T05:43:04.550Z,21.35
2017-10-29T05:43:36.197Z,21.36
2017-10-29T05:44:07.841Z,21.37
2017-10-29T05:44:39.481Z,21.41
2017-10-29T05:45:11.134Z,21.41
2017-10-29T05:45:42.786Z,21.44
2017-10-29T05:46:14.441Z,21.50
2017-10-29T05:46:46.090Z,21.49
2017-10-29T05:47:17.737Z,21.51
2017-10-29T05:47:49.384Z,21.52
2017-10-29T05:48:21.059Z,21.55
2017-10-29T05:48:52.883Z,21.56
2017-10-29T05:49:24.652Z,21.57
2017-10-29T05:49:56.301Z,21.58
2017-10-29T05:50:27.942Z,21.55
2017-10-29T05:50:59.884Z,21.57
2017-10-29T05:51:31.533Z,21.61
2017-10-29T05:52:03.186Z,21.62
2017-10-29T05:52:34.845Z,21.60
2017-10-29T05:53:06.763Z,21.55
2017-10-29T05:53:38.595Z,21.57
2017-10-29T05:54:10.350Z,21.58
2017-10-29T05:54:42.300Z,21.58
2017-10-29T05:55:13.949Z,21.58
2017-10-29T05:55:45.593Z,21.55
2017-10-29T05:56:17.241Z,21.54
2017-10-29T05:56:48.890Z,21.57
2017-10-29T05:57:20.553Z,21.56
2017-10-29T05:57:52.213Z,21.53
2017-10-29T05:58:24.100Z,21.52
2017-10-29T05:58:55.781Z,21.52
2017-10-29T05:59:27.422Z,21.53
2017-10-29T05:59:59.062Z,21.50
2017-10-29T06:00:30.716Z,21.50
2017-10-29T06:01:02.366Z,21.46
2017-10-29T06:01:34.009Z,21.42
2017-10-29T06:02:05.791Z,21.43
2017-10-29T06:02:37.545Z,21.41
2017-10-29T06:03:09.417Z,21.41
2017-10-29T06:03:41.057Z,21.39
2017-10-29T06:04:12.699Z,21.39
2017-10-29T06:04:44.346Z,21.37
2017-10-29T06:05:15.985Z,21.36
2017-10-29T06:05:47.625Z,21.37
2017-10-29T06:06:19.265Z,21.36
2017-10-29T06:06:50.905Z,21.35
2017-10-29T06:07:22.546Z,21.35
2017-10-29T06:07:54.469Z,21.34
2017-10-29T06:08:26.158Z,21.33
2017-10-29T06:08:57.801Z,21.32
2017-10-29T06:09:29.501Z,21.32
2017-10-29T06:10:01.396Z,21.32
2017-10-29T06:10:33.054Z,21.32
2017-10-29T06:11:04.737Z,21.31
2017-10-29T06:11:36.576Z,21.28
2017-10-29T06:12:08.326Z,21.28
2017-10-29T06:12:40.275Z,21.30
2017-10-29T06:13:11.921Z,21.29
2017-10-29T06:13:43.569Z,21.28
2017-10-29T06:14:15.260Z,21.28
2017-10-29T06:14:46.916Z,21.25
2017-10-29T06:15:20.799Z,21.23
2017-10-29T06:15:52.583Z,21.22
2017-10-29T06:16:24.359Z,21.20
2017-10-29T06:16:56.009Z,21.19
2017-10-29T06:17:27.657Z,21.18
2017-10-29T06:17:59.302Z,21.18
2017-10-29T06:18:30.950Z,21.16
2017-10-29T06:19:02.597Z,21.15
2017-10-29T06:19:34.289Z,21.15
2017-10-29T06:20:05.936Z,21.14
2017-10-29T06:20:37.581Z,21.12
2017-10-29T06:21:10.536Z,21.11
2017-10-29T06:21:42.413Z,21.11
2017-10-29T06:22:14.065Z,21.09
2017-10-29T06:22:45.719Z,21.09
2017-10-29T06:23:17.417Z,21.09
2017-10-29T06:23:49.261Z,21.09
2017-10-29T06:24:20.964Z,21.08
2017-10-29T06:24:52.646Z,21.07
2017-10-29T06:25:24.298Z,21.06
2017-10-29T06:25:55.942Z,21.05
2017-10-29T06:26:27.585Z,21.04
2017-10-29T06:26:59.233Z,21.04
2017-10-29T06:27:30.874Z,21.04
2017-10-29T06:28:02.526Z,21.04
2017-10-29T06:28:34.169Z,21.04
2017-10-29T06:29:05.813Z,21.04
2017-10-29T06:29:37.690Z,21.03
2017-10-29T06:30:09.381Z,21.02
2017-10-29T06:30:41.030Z,21.02
2017-10-29T06:31:12.673Z,21.01
2017-10-29T06:31:44.320Z,21.01
2017-10-29T06:32:15.962Z,21.01
2017-10-29T06:32:47.606Z,21.01
2017-10-29T06:33:19.254Z,21.00
2017-10-29T06:33:50.902Z,20.99
2017-10-29T06:34:22.553Z,20.98
2017-10-29T06:34:54.197Z,20.98
2017-10-29T06:35:25.902Z,20.97
2017-10-29T06:35:57.545Z,20.97
2017-10-29T06:36:29.197Z,20.97
2017-10-29T06:37:00.837Z,20.95
2017-10-29T06:37:32.483Z,20.94
2017-10-29T06:38:04.129Z,20.94
2017-10-29T06:38:35.774Z,20.96
2017-10-29T06:39:07.429Z,20.97
2017-10-29T06:39:39.077Z,20.97
2017-10-29T06:40:10.729Z,20.96
2017-10-29T06:40:42.518Z,20.95
2017-10-29T06:41:14.210Z,20.95
2017-10-29T06:41:45.857Z,20.96
2017-10-29T06:42:17.502Z,20.96
2017-10-29T06:42:49.153Z,20.97
2017-10-29T06:43:20.801Z,20.96
2017-10-29T06:43:52.568Z,20.95
2017-10-29T06:44:24.317Z,20.94
2017-10-29T06:44:56.269Z,20.93
2017-10-29T06:45:27.921Z,20.91
2017-10-29T06:45:59.569Z,20.91
2017-10-29T06:46:31.253Z,20.91
2017-10-29T06:47:02.898Z,20.91
2017-10-29T06:47:34.784Z,20.90
2017-10-29T06:48:06.486Z,20.89